sensor_id;sensor_type;location;lat;lon;timestamp;P1;durP1;ratioP1;P2;durP2;ratioP2
52494;SDS011;38405;53.212;5.660;2023-12-20T00:00:57;21.20;;;3.58;;
52494;SDS011;38405;53.212;5.660;2023-12-20T00:03:23;19.27;;;3.55;;
52494;SDS011;38405;53.212;5.660;2023-12-20T00:05:49;32.42;;;4.10;;
52494;SDS011;38405;53.212;5.660;2023-12-20T00:08:15;26.70;;;4.03;;
52494;SDS011;38405;53.212;5.660;2023-12-20T00:10:40;26.40;;;4.20;;
52494;SDS011;38405;53.212;5.660;2023-12-20T00:13:06;25.50;;;4.20;;
52494;SDS011;38405;53.212;5.660;2023-12-20T00:15:33;23.67;;;3.92;;
52494;SDS011;38405;53.212;5.660;2023-12-20T00:17:59;21.48;;;3.55;;
52494;SDS011;38405;53.212;5.660;2023-12-20T00:20:26;21.23;;;3.00;;
52494;SDS011;38405;53.212;5.660;2023-12-20T00:22:51;26.20;;;3.88;;
52494;SDS011;38405;53.212;5.660;2023-12-20T00:25:18;24.55;;;3.70;;
52494;SDS011;38405;53.212;5.660;2023-12-20T00:27:44;20.33;;;3.20;;
52494;SDS011;38405;53.212;5.660;2023-12-20T00:30:10;29.52;;;3.90;;
52494;SDS011;38405;53.212;5.660;2023-12-20T00:32:36;39.65;;;4.30;;
52494;SDS011;38405;53.212;5.660;2023-12-20T00:35:04;37.33;;;5.05;;
52494;SDS011;38405;53.212;5.660;2023-12-20T00:37:29;28.20;;;4.13;;
52494;SDS011;38405;53.212;5.660;2023-12-20T00:39:55;21.35;;;3.22;;
52494;SDS011;38405;53.212;5.660;2023-12-20T00:42:21;31.08;;;4.85;;
52494;SDS011;38405;53.212;5.660;2023-12-20T00:44:46;31.08;;;4.63;;
52494;SDS011;38405;53.212;5.660;2023-12-20T00:47:12;27.58;;;4.45;;
52494;SDS011;38405;53.212;5.660;2023-12-20T00:49:38;34.53;;;4.53;;
52494;SDS011;38405;53.212;5.660;2023-12-20T00:52:04;29.65;;;4.82;;
52494;SDS011;38405;53.212;5.660;2023-12-20T00:54:30;37.30;;;4.75;;
52494;SDS011;38405;53.212;5.660;2023-12-20T00:56:56;27.52;;;4.40;;
52494;SDS011;38405;53.212;5.660;2023-12-20T00:59:21;30.10;;;4.78;;
52494;SDS011;38405;53.212;5.660;2023-12-20T01:01:47;28.48;;;4.35;;
52494;SDS011;38405;53.212;5.660;2023-12-20T01:04:12;31.50;;;4.70;;
52494;SDS011;38405;53.212;5.660;2023-12-20T01:06:38;35.58;;;4.18;;
52494;SDS011;38405;53.212;5.660;2023-12-20T01:09:04;27.85;;;3.83;;
52494;SDS011;38405;53.212;5.660;2023-12-20T01:11:29;31.65;;;4.25;;
52494;SDS011;38405;53.212;5.660;2023-12-20T01:13:55;34.10;;;4.85;;
52494;SDS011;38405;53.212;5.660;2023-12-20T01:16:21;26.13;;;4.40;;
52494;SDS011;38405;53.212;5.660;2023-12-20T01:18:46;20.98;;;3.72;;
52494;SDS011;38405;53.212;5.660;2023-12-20T01:21:12;24.02;;;3.53;;
52494;SDS011;38405;53.212;5.660;2023-12-20T01:23:38;30.50;;;4.30;;
52494;SDS011;38405;53.212;5.660;2023-12-20T01:26:03;36.10;;;4.47;;
52494;SDS011;38405;53.212;5.660;2023-12-20T01:28:30;22.60;;;4.25;;
52494;SDS011;38405;53.212;5.660;2023-12-20T01:30:56;27.48;;;4.05;;
52494;SDS011;38405;53.212;5.660;2023-12-20T01:33:22;37.38;;;5.05;;
52494;SDS011;38405;53.212;5.660;2023-12-20T01:35:48;26.50;;;4.20;;
52494;SDS011;38405;53.212;5.660;2023-12-20T01:38:14;32.42;;;4.30;;
52494;SDS011;38405;53.212;5.660;2023-12-20T01:40:39;29.85;;;4.30;;
52494;SDS011;38405;53.212;5.660;2023-12-20T01:43:08;38.15;;;5.72;;
52494;SDS011;38405;53.212;5.660;2023-12-20T01:45:34;24.50;;;4.32;;
52494;SDS011;38405;53.212;5.660;2023-12-20T01:48:00;26.83;;;5.07;;
52494;SDS011;38405;53.212;5.660;2023-12-20T01:50:28;31.10;;;4.75;;
52494;SDS011;38405;53.212;5.660;2023-12-20T01:52:58;31.27;;;5.30;;
52494;SDS011;38405;53.212;5.660;2023-12-20T01:55:25;26.83;;;4.20;;
52494;SDS011;38405;53.212;5.660;2023-12-20T01:57:54;23.10;;;4.25;;
52494;SDS011;38405;53.212;5.660;2023-12-20T02:00:21;32.88;;;5.78;;
52494;SDS011;38405;53.212;5.660;2023-12-20T02:02:52;27.52;;;4.53;;
52494;SDS011;38405;53.212;5.660;2023-12-20T02:05:22;38.38;;;5.93;;
52494;SDS011;38405;53.212;5.660;2023-12-20T02:07:48;46.88;;;5.45;;
52494;SDS011;38405;53.212;5.660;2023-12-20T02:10:14;33.67;;;4.78;;
52494;SDS011;38405;53.212;5.660;2023-12-20T02:12:41;31.67;;;6.22;;
52494;SDS011;38405;53.212;5.660;2023-12-20T02:15:06;32.15;;;4.78;;
52494;SDS011;38405;53.212;5.660;2023-12-20T02:17:32;32.55;;;4.90;;
52494;SDS011;38405;53.212;5.660;2023-12-20T02:19:58;36.40;;;5.05;;
52494;SDS011;38405;53.212;5.660;2023-12-20T02:22:24;26.55;;;4.75;;
52494;SDS011;38405;53.212;5.660;2023-12-20T02:24:50;32.58;;;5.22;;
52494;SDS011;38405;53.212;5.660;2023-12-20T02:27:16;33.38;;;5.18;;
52494;SDS011;38405;53.212;5.660;2023-12-20T02:29:44;36.03;;;5.00;;
52494;SDS011;38405;53.212;5.660;2023-12-20T02:32:13;33.47;;;5.57;;
52494;SDS011;38405;53.212;5.660;2023-12-20T02:34:38;32.05;;;5.00;;
52494;SDS011;38405;53.212;5.660;2023-12-20T02:37:04;28.45;;;4.50;;
52494;SDS011;38405;53.212;5.660;2023-12-20T02:39:30;32.83;;;5.40;;
52494;SDS011;38405;53.212;5.660;2023-12-20T02:41:55;23.58;;;5.05;;
52494;SDS011;38405;53.212;5.660;2023-12-20T02:44:21;36.60;;;5.53;;
52494;SDS011;38405;53.212;5.660;2023-12-20T02:46:47;29.33;;;4.95;;
52494;SDS011;38405;53.212;5.660;2023-12-20T02:49:12;42.20;;;5.63;;
52494;SDS011;38405;53.212;5.660;2023-12-20T02:51:38;31.40;;;5.15;;
52494;SDS011;38405;53.212;5.660;2023-12-20T02:54:04;26.42;;;4.15;;
52494;SDS011;38405;53.212;5.660;2023-12-20T02:56:30;25.83;;;4.32;;
52494;SDS011;38405;53.212;5.660;2023-12-20T02:58:57;25.52;;;4.68;;
52494;SDS011;38405;53.212;5.660;2023-12-20T03:01:23;32.22;;;5.28;;
52494;SDS011;38405;53.212;5.660;2023-12-20T03:03:48;29.50;;;4.35;;
52494;SDS011;38405;53.212;5.660;2023-12-20T03:06:18;34.63;;;4.88;;
52494;SDS011;38405;53.212;5.660;2023-12-20T03:08:44;25.88;;;5.07;;
52494;SDS011;38405;53.212;5.660;2023-12-20T03:11:10;35.63;;;5.30;;
52494;SDS011;38405;53.212;5.660;2023-12-20T03:13:36;32.75;;;5.90;;
52494;SDS011;38405;53.212;5.660;2023-12-20T03:16:07;31.23;;;4.63;;
52494;SDS011;38405;53.212;5.660;2023-12-20T03:18:34;39.17;;;5.90;;
52494;SDS011;38405;53.212;5.660;2023-12-20T03:20:59;27.45;;;4.50;;
52494;SDS011;38405;53.212;5.660;2023-12-20T03:23:25;29.90;;;4.35;;
52494;SDS011;38405;53.212;5.660;2023-12-20T03:25:52;33.53;;;5.20;;
52494;SDS011;38405;53.212;5.660;2023-12-20T03:28:18;35.65;;;5.85;;
52494;SDS011;38405;53.212;5.660;2023-12-20T03:30:44;32.88;;;5.03;;
52494;SDS011;38405;53.212;5.660;2023-12-20T03:33:09;32.97;;;4.32;;
52494;SDS011;38405;53.212;5.660;2023-12-20T03:35:35;29.92;;;4.78;;
52494;SDS011;38405;53.212;5.660;2023-12-20T03:38:01;33.63;;;4.40;;
52494;SDS011;38405;53.212;5.660;2023-12-20T03:40:27;27.38;;;5.38;;
52494;SDS011;38405;53.212;5.660;2023-12-20T03:42:52;30.40;;;5.65;;
52494;SDS011;38405;53.212;5.660;2023-12-20T03:45:18;27.00;;;4.05;;
52494;SDS011;38405;53.212;5.660;2023-12-20T03:47:43;35.38;;;5.15;;
52494;SDS011;38405;53.212;5.660;2023-12-20T03:50:09;38.95;;;5.93;;
52494;SDS011;38405;53.212;5.660;2023-12-20T03:52:35;38.90;;;5.72;;
52494;SDS011;38405;53.212;5.660;2023-12-20T03:55:00;28.17;;;5.63;;
52494;SDS011;38405;53.212;5.660;2023-12-20T03:57:26;33.45;;;5.32;;
52494;SDS011;38405;53.212;5.660;2023-12-20T03:59:51;27.73;;;5.10;;
52494;SDS011;38405;53.212;5.660;2023-12-20T04:02:17;32.30;;;4.28;;
52494;SDS011;38405;53.212;5.660;2023-12-20T04:04:43;29.65;;;4.47;;
52494;SDS011;38405;53.212;5.660;2023-12-20T04:07:08;31.02;;;4.53;;
52494;SDS011;38405;53.212;5.660;2023-12-20T04:09:34;31.80;;;6.78;;
52494;SDS011;38405;53.212;5.660;2023-12-20T04:12:00;23.38;;;4.32;;
52494;SDS011;38405;53.212;5.660;2023-12-20T04:14:26;23.35;;;4.18;;
52494;SDS011;38405;53.212;5.660;2023-12-20T04:16:52;34.15;;;5.50;;
52494;SDS011;38405;53.212;5.660;2023-12-20T04:19:18;32.20;;;4.68;;
52494;SDS011;38405;53.212;5.660;2023-12-20T04:21:43;20.55;;;3.75;;
52494;SDS011;38405;53.212;5.660;2023-12-20T04:24:09;41.38;;;6.15;;
52494;SDS011;38405;53.212;5.660;2023-12-20T04:26:34;34.78;;;5.57;;
52494;SDS011;38405;53.212;5.660;2023-12-20T04:29:00;35.60;;;5.13;;
52494;SDS011;38405;53.212;5.660;2023-12-20T04:31:26;28.08;;;4.47;;
52494;SDS011;38405;53.212;5.660;2023-12-20T04:33:51;33.03;;;4.78;;
52494;SDS011;38405;53.212;5.660;2023-12-20T04:36:17;40.95;;;6.03;;
52494;SDS011;38405;53.212;5.660;2023-12-20T04:38:42;30.23;;;5.43;;
52494;SDS011;38405;53.212;5.660;2023-12-20T04:41:08;32.90;;;5.05;;
52494;SDS011;38405;53.212;5.660;2023-12-20T04:43:34;33.47;;;5.68;;
52494;SDS011;38405;53.212;5.660;2023-12-20T04:45:59;28.63;;;5.03;;
52494;SDS011;38405;53.212;5.660;2023-12-20T04:48:25;32.42;;;4.82;;
52494;SDS011;38405;53.212;5.660;2023-12-20T04:50:50;31.98;;;5.55;;
52494;SDS011;38405;53.212;5.660;2023-12-20T04:53:16;35.08;;;5.35;;
52494;SDS011;38405;53.212;5.660;2023-12-20T04:55:41;40.92;;;6.00;;
52494;SDS011;38405;53.212;5.660;2023-12-20T04:58:07;34.95;;;5.15;;
52494;SDS011;38405;53.212;5.660;2023-12-20T05:00:33;36.58;;;5.95;;
52494;SDS011;38405;53.212;5.660;2023-12-20T05:02:58;36.10;;;5.63;;
52494;SDS011;38405;53.212;5.660;2023-12-20T05:05:24;44.80;;;6.30;;
52494;SDS011;38405;53.212;5.660;2023-12-20T05:07:49;32.85;;;5.75;;
52494;SDS011;38405;53.212;5.660;2023-12-20T05:10:15;32.88;;;5.80;;
52494;SDS011;38405;53.212;5.660;2023-12-20T05:12:41;32.05;;;5.15;;
52494;SDS011;38405;53.212;5.660;2023-12-20T05:15:07;30.83;;;5.32;;
52494;SDS011;38405;53.212;5.660;2023-12-20T05:17:34;32.83;;;5.50;;
52494;SDS011;38405;53.212;5.660;2023-12-20T05:19:59;32.58;;;5.60;;
52494;SDS011;38405;53.212;5.660;2023-12-20T05:22:25;33.25;;;5.68;;
52494;SDS011;38405;53.212;5.660;2023-12-20T05:24:52;31.83;;;4.80;;
52494;SDS011;38405;53.212;5.660;2023-12-20T05:27:18;32.80;;;5.13;;
52494;SDS011;38405;53.212;5.660;2023-12-20T05:29:44;36.00;;;5.43;;
52494;SDS011;38405;53.212;5.660;2023-12-20T05:32:09;25.77;;;3.67;;
52494;SDS011;38405;53.212;5.660;2023-12-20T05:34:35;28.42;;;4.72;;
52494;SDS011;38405;53.212;5.660;2023-12-20T05:37:01;36.30;;;5.72;;
52494;SDS011;38405;53.212;5.660;2023-12-20T05:39:28;31.70;;;5.28;;
52494;SDS011;38405;53.212;5.660;2023-12-20T05:41:53;29.92;;;4.78;;
52494;SDS011;38405;53.212;5.660;2023-12-20T05:44:19;34.70;;;5.50;;
52494;SDS011;38405;53.212;5.660;2023-12-20T05:46:44;39.88;;;6.15;;
52494;SDS011;38405;53.212;5.660;2023-12-20T05:49:10;30.55;;;5.28;;
52494;SDS011;38405;53.212;5.660;2023-12-20T05:51:36;35.13;;;5.00;;
52494;SDS011;38405;53.212;5.660;2023-12-20T05:54:01;28.90;;;4.97;;
52494;SDS011;38405;53.212;5.660;2023-12-20T05:56:27;34.95;;;5.95;;
52494;SDS011;38405;53.212;5.660;2023-12-20T05:58:53;29.80;;;5.70;;
52494;SDS011;38405;53.212;5.660;2023-12-20T06:01:18;37.85;;;5.63;;
52494;SDS011;38405;53.212;5.660;2023-12-20T06:03:44;20.95;;;4.32;;
52494;SDS011;38405;53.212;5.660;2023-12-20T06:06:11;33.03;;;4.55;;
52494;SDS011;38405;53.212;5.660;2023-12-20T06:08:38;22.70;;;4.38;;
52494;SDS011;38405;53.212;5.660;2023-12-20T06:11:03;39.20;;;5.25;;
52494;SDS011;38405;53.212;5.660;2023-12-20T06:13:30;27.60;;;4.60;;
52494;SDS011;38405;53.212;5.660;2023-12-20T06:15:56;35.97;;;5.65;;
52494;SDS011;38405;53.212;5.660;2023-12-20T06:18:22;35.30;;;5.50;;
52494;SDS011;38405;53.212;5.660;2023-12-20T06:20:48;36.70;;;6.43;;
52494;SDS011;38405;53.212;5.660;2023-12-20T06:23:14;33.78;;;4.60;;
52494;SDS011;38405;53.212;5.660;2023-12-20T06:25:39;39.75;;;5.43;;
52494;SDS011;38405;53.212;5.660;2023-12-20T06:28:05;36.08;;;6.18;;
52494;SDS011;38405;53.212;5.660;2023-12-20T06:30:31;43.72;;;5.63;;
52494;SDS011;38405;53.212;5.660;2023-12-20T06:32:57;34.90;;;5.90;;
52494;SDS011;38405;53.212;5.660;2023-12-20T06:35:23;24.60;;;4.80;;
52494;SDS011;38405;53.212;5.660;2023-12-20T06:37:49;31.25;;;5.65;;
52494;SDS011;38405;53.212;5.660;2023-12-20T06:40:15;29.92;;;5.60;;
52494;SDS011;38405;53.212;5.660;2023-12-20T06:42:41;35.17;;;5.20;;
52494;SDS011;38405;53.212;5.660;2023-12-20T06:45:07;22.42;;;5.28;;
52494;SDS011;38405;53.212;5.660;2023-12-20T06:47:33;27.38;;;5.30;;
52494;SDS011;38405;53.212;5.660;2023-12-20T06:49:59;31.48;;;5.70;;
52494;SDS011;38405;53.212;5.660;2023-12-20T06:52:24;35.28;;;4.78;;
52494;SDS011;38405;53.212;5.660;2023-12-20T06:54:50;39.17;;;5.38;;
52494;SDS011;38405;53.212;5.660;2023-12-20T06:57:16;29.75;;;5.43;;
52494;SDS011;38405;53.212;5.660;2023-12-20T06:59:41;26.58;;;5.22;;
52494;SDS011;38405;53.212;5.660;2023-12-20T07:02:08;29.60;;;4.78;;
52494;SDS011;38405;53.212;5.660;2023-12-20T07:04:34;36.97;;;4.97;;
52494;SDS011;38405;53.212;5.660;2023-12-20T07:07:03;38.45;;;6.05;;
52494;SDS011;38405;53.212;5.660;2023-12-20T07:09:29;31.05;;;5.18;;
52494;SDS011;38405;53.212;5.660;2023-12-20T07:11:55;36.10;;;6.10;;
52494;SDS011;38405;53.212;5.660;2023-12-20T07:14:20;38.10;;;5.57;;
52494;SDS011;38405;53.212;5.660;2023-12-20T07:16:46;27.92;;;5.35;;
52494;SDS011;38405;53.212;5.660;2023-12-20T07:19:12;46.00;;;5.65;;
52494;SDS011;38405;53.212;5.660;2023-12-20T07:21:38;28.95;;;5.47;;
52494;SDS011;38405;53.212;5.660;2023-12-20T07:24:03;30.52;;;5.22;;
52494;SDS011;38405;53.212;5.660;2023-12-20T07:26:29;25.27;;;4.72;;
52494;SDS011;38405;53.212;5.660;2023-12-20T07:28:55;28.75;;;4.78;;
52494;SDS011;38405;53.212;5.660;2023-12-20T07:31:20;31.75;;;5.55;;
52494;SDS011;38405;53.212;5.660;2023-12-20T07:33:46;29.38;;;5.13;;
52494;SDS011;38405;53.212;5.660;2023-12-20T07:36:12;35.30;;;6.53;;
52494;SDS011;38405;53.212;5.660;2023-12-20T07:38:38;36.65;;;4.90;;
52494;SDS011;38405;53.212;5.660;2023-12-20T07:41:03;41.38;;;5.72;;
52494;SDS011;38405;53.212;5.660;2023-12-20T07:43:29;28.35;;;5.28;;
52494;SDS011;38405;53.212;5.660;2023-12-20T07:45:55;17.63;;;3.17;;
52494;SDS011;38405;53.212;5.660;2023-12-20T07:48:21;19.15;;;3.58;;
52494;SDS011;38405;53.212;5.660;2023-12-20T07:50:47;16.88;;;2.42;;
52494;SDS011;38405;53.212;5.660;2023-12-20T07:53:12;13.07;;;2.20;;
52494;SDS011;38405;53.212;5.660;2023-12-20T07:55:38;18.27;;;3.17;;
52494;SDS011;38405;53.212;5.660;2023-12-20T07:58:04;17.35;;;4.03;;
52494;SDS011;38405;53.212;5.660;2023-12-20T08:00:30;26.48;;;4.30;;
52494;SDS011;38405;53.212;5.660;2023-12-20T08:02:55;27.02;;;4.47;;
52494;SDS011;38405;53.212;5.660;2023-12-20T08:05:21;26.30;;;4.65;;
52494;SDS011;38405;53.212;5.660;2023-12-20T08:07:47;32.03;;;5.35;;
52494;SDS011;38405;53.212;5.660;2023-12-20T08:10:13;33.03;;;5.00;;
52494;SDS011;38405;53.212;5.660;2023-12-20T08:12:38;30.67;;;5.22;;
52494;SDS011;38405;53.212;5.660;2023-12-20T08:15:05;29.90;;;5.22;;
52494;SDS011;38405;53.212;5.660;2023-12-20T08:17:31;41.15;;;5.63;;
52494;SDS011;38405;53.212;5.660;2023-12-20T08:19:56;32.88;;;5.53;;
52494;SDS011;38405;53.212;5.660;2023-12-20T08:22:22;35.47;;;5.88;;
52494;SDS011;38405;53.212;5.660;2023-12-20T08:24:48;37.83;;;5.47;;
52494;SDS011;38405;53.212;5.660;2023-12-20T08:27:14;43.63;;;5.70;;
52494;SDS011;38405;53.212;5.660;2023-12-20T08:29:39;35.85;;;5.55;;
52494;SDS011;38405;53.212;5.660;2023-12-20T08:32:05;40.60;;;5.95;;
52494;SDS011;38405;53.212;5.660;2023-12-20T08:34:31;24.45;;;4.68;;
52494;SDS011;38405;53.212;5.660;2023-12-20T08:36:56;36.05;;;6.00;;
52494;SDS011;38405;53.212;5.660;2023-12-20T08:39:22;36.22;;;4.53;;
52494;SDS011;38405;53.212;5.660;2023-12-20T08:41:47;30.63;;;5.43;;
52494;SDS011;38405;53.212;5.660;2023-12-20T08:44:13;30.23;;;5.18;;
52494;SDS011;38405;53.212;5.660;2023-12-20T08:46:39;24.23;;;4.05;;
52494;SDS011;38405;53.212;5.660;2023-12-20T08:49:04;28.02;;;4.63;;
52494;SDS011;38405;53.212;5.660;2023-12-20T08:51:30;17.77;;;3.30;;
52494;SDS011;38405;53.212;5.660;2023-12-20T08:53:56;22.90;;;2.70;;
52494;SDS011;38405;53.212;5.660;2023-12-20T08:56:21;7.63;;;1.85;;
52494;SDS011;38405;53.212;5.660;2023-12-20T08:58:47;12.85;;;1.77;;
52494;SDS011;38405;53.212;5.660;2023-12-20T09:01:13;13.73;;;2.20;;
52494;SDS011;38405;53.212;5.660;2023-12-20T09:03:39;11.55;;;2.15;;
52494;SDS011;38405;53.212;5.660;2023-12-20T09:06:05;15.60;;;2.00;;
52494;SDS011;38405;53.212;5.660;2023-12-20T09:08:31;10.45;;;1.65;;
52494;SDS011;38405;53.212;5.660;2023-12-20T09:10:57;9.85;;;1.52;;
52494;SDS011;38405;53.212;5.660;2023-12-20T09:13:22;15.48;;;2.45;;
52494;SDS011;38405;53.212;5.660;2023-12-20T09:15:54;15.57;;;2.63;;
52494;SDS011;38405;53.212;5.660;2023-12-20T09:18:21;11.75;;;2.15;;
52494;SDS011;38405;53.212;5.660;2023-12-20T09:20:46;14.55;;;2.15;;
52494;SDS011;38405;53.212;5.660;2023-12-20T09:23:12;15.48;;;2.40;;
52494;SDS011;38405;53.212;5.660;2023-12-20T09:25:37;16.33;;;2.53;;
52494;SDS011;38405;53.212;5.660;2023-12-20T09:28:03;22.13;;;2.63;;
52494;SDS011;38405;53.212;5.660;2023-12-20T09:30:29;17.20;;;2.58;;
52494;SDS011;38405;53.212;5.660;2023-12-20T09:32:55;10.68;;;2.03;;
52494;SDS011;38405;53.212;5.660;2023-12-20T09:35:21;14.77;;;2.45;;
52494;SDS011;38405;53.212;5.660;2023-12-20T09:37:47;12.18;;;2.00;;
52494;SDS011;38405;53.212;5.660;2023-12-20T09:40:13;11.68;;;1.65;;
52494;SDS011;38405;53.212;5.660;2023-12-20T09:45:10;16.63;;;2.13;;
52494;SDS011;38405;53.212;5.660;2023-12-20T09:47:39;15.18;;;1.88;;
52494;SDS011;38405;53.212;5.660;2023-12-20T09:50:06;10.95;;;1.80;;
52494;SDS011;38405;53.212;5.660;2023-12-20T09:52:33;14.40;;;1.95;;
52494;SDS011;38405;53.212;5.660;2023-12-20T09:55:01;19.80;;;2.28;;
52494;SDS011;38405;53.212;5.660;2023-12-20T09:57:30;17.58;;;2.60;;
52494;SDS011;38405;53.212;5.660;2023-12-20T09:59:57;17.23;;;2.72;;
52494;SDS011;38405;53.212;5.660;2023-12-20T10:02:23;18.73;;;2.38;;
52494;SDS011;38405;53.212;5.660;2023-12-20T10:04:52;23.70;;;2.83;;
52494;SDS011;38405;53.212;5.660;2023-12-20T10:07:19;16.13;;;2.35;;
52494;SDS011;38405;53.212;5.660;2023-12-20T10:09:46;23.13;;;2.80;;
52494;SDS011;38405;53.212;5.660;2023-12-20T10:12:13;16.83;;;2.45;;
52494;SDS011;38405;53.212;5.660;2023-12-20T10:14:38;17.63;;;3.25;;
52494;SDS011;38405;53.212;5.660;2023-12-20T10:17:05;22.85;;;2.08;;
52494;SDS011;38405;53.212;5.660;2023-12-20T10:19:31;8.48;;;2.05;;
52494;SDS011;38405;53.212;5.660;2023-12-20T10:21:58;17.83;;;2.80;;
52494;SDS011;38405;53.212;5.660;2023-12-20T10:24:24;13.88;;;2.42;;
52494;SDS011;38405;53.212;5.660;2023-12-20T10:27:03;15.00;;;2.90;;
52494;SDS011;38405;53.212;5.660;2023-12-20T10:29:33;24.13;;;2.55;;
52494;SDS011;38405;53.212;5.660;2023-12-20T10:32:21;13.23;;;2.25;;
52494;SDS011;38405;53.212;5.660;2023-12-20T10:34:51;13.32;;;2.13;;
52494;SDS011;38405;53.212;5.660;2023-12-20T10:37:18;18.80;;;2.75;;
52494;SDS011;38405;53.212;5.660;2023-12-20T10:39:43;16.08;;;2.92;;
52494;SDS011;38405;53.212;5.660;2023-12-20T10:42:13;13.70;;;2.22;;
52494;SDS011;38405;53.212;5.660;2023-12-20T10:44:40;16.92;;;2.20;;
52494;SDS011;38405;53.212;5.660;2023-12-20T10:47:06;17.20;;;2.80;;
52494;SDS011;38405;53.212;5.660;2023-12-20T10:49:33;15.93;;;2.78;;
52494;SDS011;38405;53.212;5.660;2023-12-20T10:52:02;12.85;;;2.75;;
52494;SDS011;38405;53.212;5.660;2023-12-20T10:54:30;19.95;;;2.40;;
52494;SDS011;38405;53.212;5.660;2023-12-20T10:56:57;10.68;;;1.83;;
52494;SDS011;38405;53.212;5.660;2023-12-20T10:59:23;16.92;;;2.58;;
52494;SDS011;38405;53.212;5.660;2023-12-20T11:01:50;20.73;;;2.97;;
52494;SDS011;38405;53.212;5.660;2023-12-20T11:04:20;19.08;;;2.83;;
52494;SDS011;38405;53.212;5.660;2023-12-20T11:06:59;23.83;;;3.33;;
52494;SDS011;38405;53.212;5.660;2023-12-20T11:12:38;17.35;;;3.20;;
52494;SDS011;38405;53.212;5.660;2023-12-20T11:15:20;23.80;;;2.83;;
52494;SDS011;38405;53.212;5.660;2023-12-20T11:17:47;14.30;;;2.20;;
52494;SDS011;38405;53.212;5.660;2023-12-20T11:20:22;15.70;;;2.55;;
52494;SDS011;38405;53.212;5.660;2023-12-20T11:23:08;17.05;;;2.50;;
52494;SDS011;38405;53.212;5.660;2023-12-20T11:25:47;14.18;;;2.72;;
52494;SDS011;38405;53.212;5.660;2023-12-20T11:28:25;21.02;;;3.45;;
52494;SDS011;38405;53.212;5.660;2023-12-20T11:30:52;20.80;;;3.20;;
52494;SDS011;38405;53.212;5.660;2023-12-20T11:33:45;11.85;;;2.28;;
52494;SDS011;38405;53.212;5.660;2023-12-20T11:36:18;23.17;;;3.30;;
52494;SDS011;38405;53.212;5.660;2023-12-20T11:38:57;25.15;;;3.30;;
52494;SDS011;38405;53.212;5.660;2023-12-20T11:41:25;22.88;;;3.30;;
52494;SDS011;38405;53.212;5.660;2023-12-20T11:43:54;18.65;;;3.15;;
52494;SDS011;38405;53.212;5.660;2023-12-20T11:46:21;24.08;;;3.38;;
52494;SDS011;38405;53.212;5.660;2023-12-20T11:48:47;21.35;;;3.35;;
52494;SDS011;38405;53.212;5.660;2023-12-20T11:51:13;21.15;;;3.47;;
52494;SDS011;38405;53.212;5.660;2023-12-20T11:53:42;18.73;;;3.15;;
52494;SDS011;38405;53.212;5.660;2023-12-20T11:56:08;16.95;;;2.80;;
52494;SDS011;38405;53.212;5.660;2023-12-20T11:58:34;17.55;;;2.97;;
52494;SDS011;38405;53.212;5.660;2023-12-20T12:01:00;22.48;;;3.03;;
52494;SDS011;38405;53.212;5.660;2023-12-20T12:03:29;19.55;;;3.00;;
52494;SDS011;38405;53.212;5.660;2023-12-20T12:05:55;13.70;;;2.70;;
52494;SDS011;38405;53.212;5.660;2023-12-20T12:08:21;15.25;;;3.13;;
52494;SDS011;38405;53.212;5.660;2023-12-20T12:10:46;12.77;;;2.72;;
52494;SDS011;38405;53.212;5.660;2023-12-20T12:13:12;15.93;;;2.42;;
52494;SDS011;38405;53.212;5.660;2023-12-20T12:15:39;13.45;;;2.33;;
52494;SDS011;38405;53.212;5.660;2023-12-20T12:18:07;10.32;;;2.10;;
52494;SDS011;38405;53.212;5.660;2023-12-20T12:20:33;17.02;;;2.50;;
52494;SDS011;38405;53.212;5.660;2023-12-20T12:23:02;14.20;;;2.28;;
52494;SDS011;38405;53.212;5.660;2023-12-20T12:25:30;12.90;;;2.67;;
52494;SDS011;38405;53.212;5.660;2023-12-20T12:27:56;10.15;;;2.45;;
52494;SDS011;38405;53.212;5.660;2023-12-20T12:30:23;11.13;;;2.08;;
52494;SDS011;38405;53.212;5.660;2023-12-20T12:32:50;10.48;;;2.08;;
52494;SDS011;38405;53.212;5.660;2023-12-20T12:35:17;15.32;;;2.00;;
52494;SDS011;38405;53.212;5.660;2023-12-20T12:37:43;15.27;;;3.08;;
52494;SDS011;38405;53.212;5.660;2023-12-20T12:40:09;13.52;;;1.98;;
52494;SDS011;38405;53.212;5.660;2023-12-20T12:42:36;12.45;;;1.65;;
52494;SDS011;38405;53.212;5.660;2023-12-20T12:45:03;16.45;;;2.28;;
52494;SDS011;38405;53.212;5.660;2023-12-20T12:47:30;20.80;;;2.00;;
52494;SDS011;38405;53.212;5.660;2023-12-20T12:49:56;14.80;;;2.33;;
52494;SDS011;38405;53.212;5.660;2023-12-20T12:52:22;12.23;;;2.28;;
52494;SDS011;38405;53.212;5.660;2023-12-20T12:54:48;12.05;;;2.28;;
52494;SDS011;38405;53.212;5.660;2023-12-20T12:57:14;12.25;;;2.00;;
52494;SDS011;38405;53.212;5.660;2023-12-20T12:59:44;10.05;;;1.67;;
52494;SDS011;38405;53.212;5.660;2023-12-20T13:02:13;12.60;;;1.88;;
52494;SDS011;38405;53.212;5.660;2023-12-20T13:04:42;17.65;;;2.05;;
52494;SDS011;38405;53.212;5.660;2023-12-20T13:07:08;15.30;;;2.13;;
52494;SDS011;38405;53.212;5.660;2023-12-20T13:09:37;12.43;;;2.28;;
52494;SDS011;38405;53.212;5.660;2023-12-20T13:12:04;11.40;;;1.75;;
52494;SDS011;38405;53.212;5.660;2023-12-20T13:14:32;9.15;;;1.80;;
52494;SDS011;38405;53.212;5.660;2023-12-20T13:17:00;8.70;;;1.85;;
52494;SDS011;38405;53.212;5.660;2023-12-20T13:19:29;17.40;;;1.77;;
52494;SDS011;38405;53.212;5.660;2023-12-20T13:21:55;11.23;;;1.60;;
52494;SDS011;38405;53.212;5.660;2023-12-20T13:24:21;9.52;;;1.75;;
52494;SDS011;38405;53.212;5.660;2023-12-20T13:26:46;11.02;;;1.88;;
52494;SDS011;38405;53.212;5.660;2023-12-20T13:29:12;7.68;;;1.33;;
52494;SDS011;38405;53.212;5.660;2023-12-20T13:31:38;12.88;;;1.77;;
52494;SDS011;38405;53.212;5.660;2023-12-20T13:34:05;10.02;;;1.30;;
52494;SDS011;38405;53.212;5.660;2023-12-20T13:36:31;12.63;;;2.10;;
52494;SDS011;38405;53.212;5.660;2023-12-20T13:38:56;12.43;;;1.60;;
52494;SDS011;38405;53.212;5.660;2023-12-20T13:41:22;9.90;;;1.52;;
52494;SDS011;38405;53.212;5.660;2023-12-20T13:43:48;13.40;;;1.77;;
52494;SDS011;38405;53.212;5.660;2023-12-20T13:46:13;13.00;;;2.05;;
52494;SDS011;38405;53.212;5.660;2023-12-20T13:48:39;12.07;;;1.77;;
52494;SDS011;38405;53.212;5.660;2023-12-20T13:51:05;14.63;;;2.38;;
52494;SDS011;38405;53.212;5.660;2023-12-20T13:53:31;9.27;;;2.22;;
52494;SDS011;38405;53.212;5.660;2023-12-20T13:55:57;14.32;;;2.28;;
52494;SDS011;38405;53.212;5.660;2023-12-20T13:58:23;19.23;;;2.83;;
52494;SDS011;38405;53.212;5.660;2023-12-20T14:00:48;14.75;;;2.45;;
52494;SDS011;38405;53.212;5.660;2023-12-20T14:03:14;14.80;;;2.60;;
52494;SDS011;38405;53.212;5.660;2023-12-20T14:05:40;11.27;;;2.10;;
52494;SDS011;38405;53.212;5.660;2023-12-20T14:08:06;19.27;;;2.72;;
52494;SDS011;38405;53.212;5.660;2023-12-20T14:10:32;23.02;;;3.25;;
52494;SDS011;38405;53.212;5.660;2023-12-20T14:12:58;17.58;;;2.85;;
52494;SDS011;38405;53.212;5.660;2023-12-20T14:15:23;15.90;;;2.75;;
52494;SDS011;38405;53.212;5.660;2023-12-20T14:17:50;26.02;;;3.47;;
52494;SDS011;38405;53.212;5.660;2023-12-20T14:20:16;35.83;;;4.15;;
52494;SDS011;38405;53.212;5.660;2023-12-20T14:22:42;29.90;;;4.22;;
52494;SDS011;38405;53.212;5.660;2023-12-20T14:25:12;38.42;;;4.75;;
52494;SDS011;38405;53.212;5.660;2023-12-20T14:27:39;23.60;;;3.83;;
52494;SDS011;38405;53.212;5.660;2023-12-20T14:30:05;32.50;;;4.18;;
52494;SDS011;38405;53.212;5.660;2023-12-20T14:32:32;36.38;;;4.22;;
52494;SDS011;38405;53.212;5.660;2023-12-20T14:35:01;27.55;;;4.22;;
52494;SDS011;38405;53.212;5.660;2023-12-20T14:37:29;30.58;;;4.60;;